This is the latest recevied weather packets stored in our database for station/object DM4RS-1. If no packets are shown the sender has not sent any weather packets the latest 10 day(s).
| Time | Temp. | Humidity | Pressure | Rain* | Wind** | Luminosity | Snow |
|---|---|---|---|---|---|---|---|
| 1777604201 | 4.44° C | 66% | 1031.5 hPa | - | - | - | - |
| 1777603001 | 5° C | 66% | 1031.1 hPa | - | - | - | - |
| 1777602401 | 5° C | 66% | 1032 hPa | - | - | - | - |
| 1777584400 | 10.56° C | 56% | 1031.5 hPa | - | - | - | - |
| 1777580194 | 12.78° C | 50% | 1031 hPa | - | - | - | - |
| 1777576592 | 15° C | 45% | 1030.5 hPa | - | - | - | - |
| 1777563388 | 20.56° C | 34% | 1030.3 hPa | - | - | - | - |
| 1777545383 | 17.22° C | 31% | 1032.7 hPa | - | - | - | - |
| 1777544784 | 17.78° C | 32% | 1033.6 hPa | - | - | - | - |
| 1777544183 | 17.22° C | 32% | 1033.2 hPa | - | - | - | - |
| 1777543583 | 17.22° C | 33% | 1033.5 hPa | - | - | - | - |
| 1777542983 | 16.67° C | 33% | 1034.1 hPa | - | - | - | - |
| 1777542382 | 16.67° C | 33% | 1034.2 hPa | - | - | - | - |
| 1777541782 | 16.67° C | 33% | 1034 hPa | - | - | - | - |
| 1777541182 | 16.11° C | 33% | 1034 hPa | - | - | - | - |
| 1777540582 | 16.11° C | 33% | 1035.7 hPa | - | - | - | - |
| 1777539382 | 15.56° C | 35% | 1033.5 hPa | - | - | - | - |
| 1777538181 | 15° C | 36% | 1033.6 hPa | - | - | - | - |
| 1777537581 | 14.44° C | 37% | 1033.8 hPa | - | - | - | - |
| 1777536981 | 13.89° C | 37% | 1033.7 hPa | - | - | - | - |
| 1777536381 | 13.89° C | 39% | 1033.2 hPa | - | - | - | - |
| 1777535781 | 13.33° C | 41% | 1034.7 hPa | - | - | - | - |
| 1777534581 | 12.22° C | 43% | 1035.8 hPa | - | - | - | - |
| 1777533980 | 11.67° C | 45% | 1035.3 hPa | - | - | - | - |
| 1777532781 | 10° C | 48% | 1034.7 hPa | - | - | - | - |
* Rain since midnight (hover to see other rain measurements)
** Current wind speed in m/s (hover to see current wind gust speed)